sensor_id;sensor_type;location;lat;lon;timestamp;pressure;altitude;pressure_sealevel;temperature;humidity
15558;BME280;7880;50.110;9.372;2023-02-28T00:02:43;-1.6839097765972837;;;-1.562;100.0
15558;BME280;7880;50.110;9.372;2023-02-28T00:07:50;-1.8049080312019214;;;-1.687;100.0
15558;BME280;7880;50.110;9.372;2023-02-28T00:12:51;-1.870448682451388;;;-1.687;100.0
15558;BME280;7880;50.110;9.372;2023-02-28T00:17:55;-1.6687849829846528;;;-1.562;100.0
15558;BME280;7880;50.110;9.372;2023-02-28T00:23:07;-1.8603655085375066;;;-1.687;100.0
15558;BME280;7880;50.110;9.372;2023-02-28T00:28:04;-1.7544921121560038;;;-1.625;100.0
15558;BME280;7880;50.110;9.372;2023-02-28T00:33:11;-1.7292841417191085;;;-1.625;100.0
15558;BME280;7880;50.110;9.372;2023-02-28T00:38:15;-1.8805318552011159;;;-1.687;100.0
15558;BME280;7880;50.110;9.372;2023-02-28T00:43:19;-1.8452407454838977;;;-1.75;100.0
15558;BME280;7880;50.110;9.372;2023-02-28T00:48:23;-1.8200328012404499;;;-1.687;100.0
15558;BME280;7880;50.110;9.372;2023-02-28T00:53:27;-1.8603655085375066;;;-1.687;100.0
15558;BME280;7880;50.110;9.372;2023-02-28T00:58:30;-1.9259061181684956;;;-1.812;100.0
15558;BME280;7880;50.110;9.372;2023-02-28T01:03:34;-2.0973197877407075;;;-1.937;100.0
15558;BME280;7880;50.110;9.372;2023-02-28T01:08:38;-2.0721119162568358;;;-2.0;100.0
15558;BME280;7880;50.110;9.372;2023-02-28T01:13:50;-2.198151200916618;;;-2.062;100.0
15558;BME280;7880;50.110;9.372;2023-02-28T01:18:51;-2.198151200916618;;;-2.0;100.0
15558;BME280;7880;50.110;9.372;2023-02-28T01:23:56;-1.9611971952894236;;;-1.875;100.0
15558;BME280;7880;50.110;9.372;2023-02-28T01:29:06;-2.0267377292504536;;;-1.937;100.0
15558;BME280;7880;50.110;9.372;2023-02-28T01:34:05;-2.248566863848828;;;-2.062;100.0
15558;BME280;7880;50.110;9.372;2023-02-28T01:38:53;-2.031779306748649;;;-1.937;100.0
15558;BME280;7880;50.110;9.372;2023-02-28T01:44:01;-2.278816247638315;;;-2.125;100.0
15558;BME280;7880;50.110;9.372;2023-02-28T01:49:07;-2.1275692239170896;;;-2.0;100.0
15558;BME280;7880;50.110;9.372;2023-02-28T01:54:16;-2.233442168025067;;;-2.062;100.0
15558;BME280;7880;50.110;9.372;2023-02-28T01:59:19;-2.062028765626019;;;-1.937;100.0
15558;BME280;7880;50.110;9.372;2023-02-28T02:04:18;-2.3594812198542057;;;-2.062;100.0
15558;BME280;7880;50.110;9.372;2023-02-28T02:09:20;-2.2536084285413382;;;-2.125;100.0
15558;BME280;7880;50.110;9.372;2023-02-28T02:14:38;-2.2636915570532437;;;-2.125;100.0
15558;BME280;7880;50.110;9.372;2023-02-28T02:19:52;-2.2838578105845952;;;-2.187;100.0
15558;BME280;7880;50.110;9.372;2023-02-28T02:25:10;-2.374605893850094;;;-2.187;100.0
15558;BME280;7880;50.110;9.372;2023-02-28T02:30:14;-2.2636915570532437;;;-2.125;100.0
15558;BME280;7880;50.110;9.372;2023-02-28T02:35:03;-2.4300630094250666;;;-2.25;100.0
15558;BME280;7880;50.110;9.372;2023-02-28T02:40:11;-2.485520089784404;;;-2.312;100.0
15558;BME280;7880;50.110;9.372;2023-02-28T02:45:09;-2.4703954349970445;;;-2.375;100.0
15558;BME280;7880;50.110;9.372;2023-02-28T02:50:24;-2.419979900121689;;;-2.312;100.0
15558;BME280;7880;50.110;9.372;2023-02-28T02:55:15;-2.4603123303502796;;;-2.312;100.0
15558;BME280;7880;50.110;9.372;2023-02-28T03:00:26;-2.4451876711973455;;;-2.312;100.0
15558;BME280;7880;50.110;9.372;2023-02-28T03:05:26;-2.5510602302616463;;;-2.375;100.0
15558;BME280;7880;50.110;9.372;2023-02-28T03:10:33;-2.5661848710791673;;;-2.375;100.0
15558;BME280;7880;50.110;9.372;2023-02-28T03:15:36;-2.6922234426951035;;;-2.562;100.0
15558;BME280;7880;50.110;9.372;2023-02-28T03:20:43;-2.546018682740396;;;-2.437;100.0
15558;BME280;7880;50.110;9.372;2023-02-28T03:25:51;-2.606517233786872;;;-2.437;100.0
15558;BME280;7880;50.110;9.372;2023-02-28T03:30:56;-2.7628049633465706;;;-2.625;100.0
15558;BME280;7880;50.110;9.372;2023-02-28T03:35:50;-2.722472672816366;;;-2.562;100.0
15558;BME280;7880;50.110;9.372;2023-02-28T03:40:58;-2.6468495778681245;;;-2.5;100.0
15558;BME280;7880;50.110;9.372;2023-02-28T03:45:58;-2.838427957886597;;;-2.687;100.0
15558;BME280;7880;50.110;9.372;2023-02-28T03:51:03;-2.7779295674932656;;;-2.625;100.0
15558;BME280;7880;50.110;9.372;2023-02-28T03:56:12;-2.7426388204097747;;;-2.625;100.0
15558;BME280;7880;50.110;9.372;2023-02-28T04:01:16;-2.9342169902985917;;;-2.75;100.0
15558;BME280;7880;50.110;9.372;2023-02-28T04:06:17;-2.8686771373671944;;;-2.812;100.0
15558;BME280;7880;50.110;9.372;2023-02-28T04:11:23;-3.019922877609497;;;-2.875;100.0
15558;BME280;7880;50.110;9.372;2023-02-28T04:16:24;-3.060255030769622;;;-2.875;100.0
15558;BME280;7880;50.110;9.372;2023-02-28T04:21:30;-3.019922877609497;;;-2.875;100.0
15558;BME280;7880;50.110;9.372;2023-02-28T04:26:42;-2.959424612944713;;;-2.812;100.0
15558;BME280;7880;50.110;9.372;2023-02-28T04:31:37;-2.863635608181357;;;-2.75;100.0
15558;BME280;7880;50.110;9.372;2023-02-28T04:36:41;-3.019922877609497;;;-2.812;100.0
15558;BME280;7880;50.110;9.372;2023-02-28T04:41:49;-3.030005917645758;;;-2.875;100.0
15558;BME280;7880;50.110;9.372;2023-02-28T04:46:51;-2.909009360376513;;;-2.812;100.0
15558;BME280;7880;50.110;9.372;2023-02-28T04:51:54;-2.9493415647593793;;;-2.75;100.0
15558;BME280;7880;50.110;9.372;2023-02-28T04:56:57;-2.919092413218459;;;-2.75;100.0
15558;BME280;7880;50.110;9.372;2023-02-28T05:02:07;-3.0400889565178657;;;-2.937;100.0
15558;BME280;7880;50.110;9.372;2023-02-28T05:07:10;-3.009839836409083;;;-2.937;100.0
15558;BME280;7880;50.110;9.372;2023-02-28T05:12:14;-3.0400889565178657;;;-2.812;100.0
15558;BME280;7880;50.110;9.372;2023-02-28T05:17:17;-3.1409192812105173;;;-3.0;100.0
15558;BME280;7880;50.110;9.372;2023-02-28T05:22:20;-3.0955456495052203;;;-2.937;100.0
15558;BME280;7880;50.110;9.372;2023-02-28T05:27:23;-3.216541948332451;;;-3.0;100.0
15558;BME280;7880;50.110;9.372;2023-02-28T05:32:29;-3.181251378491288;;;-3.0;100.0
15558;BME280;7880;50.110;9.372;2023-02-28T05:37:29;-3.110670196026331;;;-3.0;100.0
15558;BME280;7880;50.110;9.372;2023-02-28T05:42:33;-3.110670196026331;;;-2.937;100.0
15558;BME280;7880;50.110;9.372;2023-02-28T05:47:37;-3.2921645499707664;;;-3.062;100.0
15558;BME280;7880;50.110;9.372;2023-02-28T05:52:41;-3.15100230727694;;;-3.0;100.0
15558;BME280;7880;50.110;9.372;2023-02-28T05:57:44;-3.115711710951291;;;-2.937;100.0
15558;BME280;7880;50.110;9.372;2023-02-28T06:02:50;-1.043624555360293;;;-1.375;100.0
15558;BME280;7880;50.110;9.372;2023-02-28T06:07:54;-2.9493415647593793;;;-2.562;100.0
15558;BME280;7880;50.110;9.372;2023-02-28T06:13:05;-3.1409192812105173;;;-2.937;100.0
15558;BME280;7880;50.110;9.372;2023-02-28T06:18:02;-3.135877767740749;;;-2.937;100.0
15558;BME280;7880;50.110;9.372;2023-02-28T06:23:05;-3.130836253979942;;;-2.937;100.0
15558;BME280;7880;50.110;9.372;2023-02-28T06:28:09;-2.964466136600822;;;-2.812;100.0
15558;BME280;7880;50.110;9.372;2023-02-28T06:33:14;-2.7123895972734315;;;-2.562;100.0
15558;BME280;7880;50.110;9.372;2023-02-28T06:38:18;-2.661974202096462;;;-2.375;100.0
15558;BME280;7880;50.110;9.372;2023-02-28T06:43:05;-2.7023065205663443;;;-2.437;100.0
15558;BME280;7880;50.110;9.372;2023-02-28T06:48:13;-2.732555747195147;;;-2.5;100.0
15558;BME280;7880;50.110;9.372;2023-02-28T06:53:12;-2.7577634280489294;;;-2.5;100.0
15558;BME280;7880;50.110;9.372;2023-02-28T06:58:15;-2.6720572834601626;;;-2.437;100.0
15558;BME280;7880;50.110;9.372;2023-02-28T07:03:21;-2.6166003215534146;;;-2.375;100.0
15558;BME280;7880;50.110;9.372;2023-02-28T07:08:25;-2.7275142101512757;;;-2.437;100.0
15558;BME280;7880;50.110;9.372;2023-02-28T07:13:30;-2.5661848710791673;;;-2.312;100.0
15558;BME280;7880;50.110;9.372;2023-02-28T07:18:31;-2.4300630094250666;;;-2.187;100.0
15558;BME280;7880;50.110;9.372;2023-02-28T07:23:35;-2.4451876711973455;;;-2.187;100.0
15558;BME280;7880;50.110;9.372;2023-02-28T07:28:39;-2.3645227781438733;;;-2.125;100.0
15558;BME280;7880;50.110;9.372;2023-02-28T07:33:46;-2.2737746844009963;;;-2.062;100.0
15558;BME280;7880;50.110;9.372;2023-02-28T07:38:50;-2.183026496361708;;;-2.0;100.0
15558;BME280;7880;50.110;9.372;2023-02-28T07:43:53;-2.082195065723499;;;-1.812;100.0
15558;BME280;7880;50.110;9.372;2023-02-28T07:48:59;-2.0267377292504536;;;-1.812;100.0
15558;BME280;7880;50.110;9.372;2023-02-28T07:54:00;-1.9208645345584956;;;-1.687;100.0
15558;BME280;7880;50.110;9.372;2023-02-28T07:59:14;-1.7393673307669815;;;-1.562;100.0
15558;BME280;7880;50.110;9.372;2023-02-28T08:04:06;-1.69903456759057;;;-1.437;100.0
15558;BME280;7880;50.110;9.372;2023-02-28T08:09:09;-1.5629113543545827;;;-1.312;100.0
15558;BME280;7880;50.110;9.372;2023-02-28T08:14:13;-1.5679529586283025;;;-1.312;100.0
15558;BME280;7880;50.110;9.372;2023-02-28T08:19:19;-1.5175369027943817;;;-1.312;100.0
15558;BME280;7880;50.110;9.372;2023-02-28T08:24:24;-1.3914966358803214;;;-1.187;100.0
15558;BME280;7880;50.110;9.372;2023-02-28T08:29:26;-1.3360388608125504;;;-1.125;100.0
15558;BME280;7880;50.110;9.372;2023-02-28T08:34:32;-1.2049567070265765;;;-1.0;100.0
15558;BME280;7880;50.110;9.372;2023-02-28T08:39:47;-1.235206452285638;;;-1.0;100.0
15558;BME280;7880;50.110;9.372;2023-02-28T08:44:38;-1.0688327237032353;;;-0.875;100.0
15558;BME280;7880;50.110;9.372;2023-02-28T08:49:42;-0.9932081968465354;;;-0.75;100.0
15558;BME280;7880;50.110;9.372;2023-02-28T08:54:46;-0.8621255285048391;;;-0.687;100.0
15558;BME280;7880;50.110;9.372;2023-02-28T08:59:53;-0.8470005925744772;;;-0.562;100.0
15558;BME280;7880;50.110;9.372;2023-02-28T09:04:55;-0.7612925728259142;;;-0.562;100.0
15558;BME280;7880;50.110;9.372;2023-02-28T09:09:59;-0.6402928723429795;;;-0.437;100.0
15558;BME280;7880;50.110;9.372;2023-02-28T09:15:06;-0.43862633234239184;;;-0.187;100.0
15558;BME280;7880;50.110;9.372;2023-02-28T09:20:12;-0.3882096245826688;;;-0.125;100.0
15558;BME280;7880;50.110;9.372;2023-02-28T09:25:12;-0.368042933329707;;;-0.125;99.71987817365628
15558;BME280;7880;50.110;9.372;2023-02-28T09:30:15;-0.3529179118340835;;;-0.062;98.9434136912787
15558;BME280;7880;50.110;9.372;2023-02-28T09:35:22;-0.2772927650657948;;;0.0;98.51698122422134
15558;BME280;7880;50.110;9.372;2023-02-28T09:40:26;-0.030250162607990204;;;0.187;97.88665903355182
15558;BME280;7880;50.110;9.372;2023-02-28T09:45:30;-0.07562538687488995;;;0.187;96.94215238217882
15558;BME280;7880;50.110;9.372;2023-02-28T09:50:36;-0.015125082613667473;;;0.187;98.84180663693976
15558;BME280;7880;50.110;9.372;2023-02-28T09:55:40;-0.39325129666831343;;;-0.125;96.09571801029149
15558;BME280;7880;50.110;9.372;2023-02-28T10:00:44;-0.15629239403060638;;;0.0;98.06146356044204
15558;BME280;7880;50.110;9.372;2023-02-28T10:05:51;-0.08570876684389077;;;0.062;98.94829142679592
15558;BME280;7880;50.110;9.372;2023-02-28T10:10:51;0.2772936454566661;;;0.5;96.08070354238188
15558;BME280;7880;50.110;9.372;2023-02-28T10:15:57;0.2571268051920924;;;0.437;94.37310908219253
15558;BME280;7880;50.110;9.372;2023-02-28T10:21:03;0.05041696096304804;;;0.312;91.24013280967753
15558;BME280;7880;50.110;9.372;2023-02-28T10:26:11;0.8873427644371986;;;0.625;100.0
15558;BME280;7880;50.110;9.372;2023-02-28T10:31:10;0.13108415903989226;;;0.375;90.8626391580286
15558;BME280;7880;50.110;9.372;2023-02-28T10:36:14;0.14116756403818725;;;0.375;91.86011114833501
15558;BME280;7880;50.110;9.372;2023-02-28T10:41:42;0.21175143162254245;;;0.437;89.76939151782867
15558;BME280;7880;50.110;9.372;2023-02-28T10:46:33;0.1512509702006355;;;0.375;89.87396587329083
15558;BME280;7880;50.110;9.372;2023-02-28T10:51:35;0.3932530673453584;;;0.5;88.74958780093412
15558;BME280;7880;50.110;9.372;2023-02-28T10:56:35;0.5898802650219295;;;0.75;87.03925769789777
15558;BME280;7880;50.110;9.372;2023-02-28T11:01:38;0.7713826865481679;;;0.937;86.14456294367173
15558;BME280;7880;50.110;9.372;2023-02-28T11:06:37;1.2503492210060358;;;1.375;86.04865722988127
15558;BME280;7880;50.110;9.372;2023-02-28T11:11:43;1.4973961445095483;;;1.75;84.82576559967488
15558;BME280;7880;50.110;9.372;2023-02-28T11:16:48;1.4621036840835586;;;1.687;85.15533886516448
15558;BME280;7880;50.110;9.372;2023-02-28T11:26:58;1.245307454332942;;;1.5;86.28401878637692
15558;BME280;7880;50.110;9.372;2023-02-28T11:32:13;1.013386501983041;;;1.25;86.33280650254653
15558;BME280;7880;50.110;9.372;2023-02-28T11:37:12;0.9528854852600489;;;1.125;86.45360543481881
15558;BME280;7880;50.110;9.372;2023-02-28T11:42:27;1.280599827156402;;;1.437;87.53978325432405
15558;BME280;7880;50.110;9.372;2023-02-28T11:47:29;1.1595974654192105;;;1.375;85.01689367710954
15558;BME280;7880;50.110;9.372;2023-02-28T11:52:34;1.320933984988369;;;1.562;83.67046351755681
15558;BME280;7880;50.110;9.372;2023-02-28T11:57:37;1.598231824307004;;;1.75;84.37534192965524
15558;BME280;7880;50.110;9.372;2023-02-28T12:02:36;1.5024379257345573;;;1.812;82.30927496048128
15558;BME280;7880;50.110;9.372;2023-02-28T12:07:41;1.4721872427500784;;;1.687;83.18959636647627
15558;BME280;7880;50.110;9.372;2023-02-28T12:12:53;1.2957251341606024;;;1.562;82.63542021668749
15558;BME280;7880;50.110;9.372;2023-02-28T12:17:54;1.4016023565316573;;;1.562;83.4280932130387
15558;BME280;7880;50.110;9.372;2023-02-28T12:22:55;1.6335243397392332;;;1.75;84.59521060032142
15558;BME280;7880;50.110;9.372;2023-02-28T12:27:53;1.683942243666388;;;1.812;82.8641762543893
15558;BME280;7880;50.110;9.372;2023-02-28T12:33:04;1.7646109504858032;;;1.937;82.74989499781815
15558;BME280;7880;50.110;9.372;2023-02-28T12:38:05;1.930990393605316;;;2.125;82.91263678500997
15558;BME280;7880;50.110;9.372;2023-02-28T12:43:07;1.9561994277872146;;;2.25;81.44413966834547
15558;BME280;7880;50.110;9.372;2023-02-28T12:48:19;2.067119264625944;;;2.25;83.73562724270487
15558;BME280;7880;50.110;9.372;2023-02-28T12:53:20;2.087286522821523;;;2.312;83.22867150562965
15558;BME280;7880;50.110;9.372;2023-02-28T12:58:27;2.2940011878090445;;;2.437;83.30359897235088
15558;BME280;7880;50.110;9.372;2023-02-28T13:03:37;2.067119264625944;;;2.25;81.56436353212935
15558;BME280;7880;50.110;9.372;2023-02-28T13:09:09;2.067119264625944;;;2.375;80.35978248804463
15558;BME280;7880;50.110;9.372;2023-02-28T13:13:57;2.283917534264037;;;2.437;82.8031770926704
15558;BME280;7880;50.110;9.372;2023-02-28T13:19:09;2.2738338818831836;;;2.437;81.65396475899296
15558;BME280;7880;50.110;9.372;2023-02-28T13:24:02;2.4906326646218075;;;2.687;83.22293397808217
15558;BME280;7880;50.110;9.372;2023-02-28T13:29:43;2.3645867952203843;;;2.625;82.40033514536938
15558;BME280;7880;50.110;9.372;2023-02-28T13:34:23;2.334335813630605;;;2.562;83.0713902186172
15558;BME280;7880;50.110;9.372;2023-02-28T13:40:22;2.2587084054946898;;;2.5;81.07556224992074
15558;BME280;7880;50.110;9.372;2023-02-28T13:45:26;2.162913782527903;;;2.375;82.37271110788794
15558;BME280;7880;50.110;9.372;2023-02-28T13:50:19;2.480548988375813;;;2.625;81.80027971197315
15558;BME280;7880;50.110;9.372;2023-02-28T13:55:25;2.4603816393762825;;;2.687;81.2056141750544
15558;BME280;7880;50.110;9.372;2023-02-28T14:00:28;2.556176588597009;;;2.687;82.43197708711617
15558;BME280;7880;50.110;9.372;2023-02-28T14:05:33;2.5259255406504963;;;2.687;82.73765874877748
15558;BME280;7880;50.110;9.372;2023-02-28T14:10:29;2.5309673812473195;;;2.687;82.31069106140322
15558;BME280;7880;50.110;9.372;2023-02-28T14:15:43;2.485590826353291;;;2.625;83.32534877710025
15558;BME280;7880;50.110;9.372;2023-02-28T14:20:40;2.646929795300821;;;2.812;84.4509639433859
15558;BME280;7880;50.110;9.372;2023-02-28T14:25:41;2.470465313293971;;;2.75;81.91249957588008
15558;BME280;7880;50.110;9.372;2023-02-28T14:30:53;2.5965113354905043;;;2.75;81.53475894983406
15558;BME280;7880;50.110;9.372;2023-02-28T14:36:03;4.043532700673677;;;4.0;97.68804655626447
15558;BME280;7880;50.110;9.372;2023-02-28T14:40:53;2.994817961216904;;;3.5;81.7948789002168
15558;BME280;7880;50.110;9.372;2023-02-28T14:45:58;2.7679342175892088;;;3.062;80.88837240708108
15558;BME280;7880;50.110;9.372;2023-02-28T14:51:00;2.707431985490257;;;2.875;81.4128517137187
15558;BME280;7880;50.110;9.372;2023-02-28T14:56:05;2.631804254301824;;;2.875;80.83247654639756
15558;BME280;7880;50.110;9.372;2023-02-28T15:01:27;2.566260273574153;;;2.75;81.64996968333712
15558;BME280;7880;50.110;9.372;2023-02-28T15:06:14;2.5813858032226564;;;2.812;81.55887196458065
15558;BME280;7880;50.110;9.372;2023-02-28T15:11:19;2.546092904784018;;;2.687;82.55448363055474
15558;BME280;7880;50.110;9.372;2023-02-28T15:16:25;2.420046955347061;;;2.687;81.25790259473527
15558;BME280;7880;50.110;9.372;2023-02-28T15:21:29;2.4049214536382353;;;2.562;82.62625647539424
15558;BME280;7880;50.110;9.372;2023-02-28T15:26:33;2.243582931725541;;;2.437;82.99937336512988
15558;BME280;7880;50.110;9.372;2023-02-28T15:31:39;2.2536665806139355;;;2.437;83.60779008512813
15558;BME280;7880;50.110;9.372;2023-02-28T15:36:48;2.183081062842393;;;2.375;82.96166643490554
15558;BME280;7880;50.110;9.372;2023-02-28T15:41:46;2.0368683860637247;;;2.25;83.68586843015608
15558;BME280;7880;50.110;9.372;2023-02-28T15:46:57;2.162913782527903;;;2.312;85.32564453814103
15558;BME280;7880;50.110;9.372;2023-02-28T15:51:59;3.438503429689445;;;3.187;100.0
15558;BME280;7880;50.110;9.372;2023-02-28T15:57:05;2.3595449642278252;;;2.75;84.9527529977636
15558;BME280;7880;50.110;9.372;2023-02-28T16:02:17;2.0217429507116322;;;2.25;87.28230591068353
15558;BME280;7880;50.110;9.372;2023-02-28T16:07:13;2.016701139509678;;;2.187;88.59146507964786
15558;BME280;7880;50.110;9.372;2023-02-28T16:12:27;1.900739562191302;;;2.125;87.7707139124916
15558;BME280;7880;50.110;9.372;2023-02-28T16:17:24;2.107453785673715;;;2.125;92.58639716093019
15558;BME280;7880;50.110;9.372;2023-02-28T16:22:23;1.961241235496709;;;2.125;89.1338443115178
15558;BME280;7880;50.110;9.372;2023-02-28T16:27:30;1.7293183820846025;;;1.937;94.15971340759447
15558;BME280;7880;50.110;9.372;2023-02-28T16:32:32;1.7141929999925196;;;1.875;94.40350829445032
15558;BME280;7880;50.110;9.372;2023-02-28T16:37:41;1.7595691541268024;;;1.875;97.57962047557004
15558;BME280;7880;50.110;9.372;2023-02-28T16:42:43;2.011659328598762;;;1.937;99.88464373688747
15558;BME280;7880;50.110;9.372;2023-02-28T16:47:46;1.5276468362251763;;;1.687;100.0
15558;BME280;7880;50.110;9.372;2023-02-28T16:51:36;1.356226388370851;;;1.5;100.0
15558;BME280;7880;50.110;9.372;2023-02-28T16:56:45;1.0940545894729439;;;1.187;100.0
15558;BME280;7880;50.110;9.372;2023-02-28T17:01:45;1.0638040479330813;;;1.062;100.0
15558;BME280;7880;50.110;9.372;2023-02-28T17:06:51;0.8722175281553064;;;0.875;100.0
15558;BME280;7880;50.110;9.372;2023-02-28T17:12:00;0.6251723730005324;;;0.625;100.0
15558;BME280;7880;50.110;9.372;2023-02-28T17:16:59;0.6302141038759146;;;0.625;100.0
15558;BME280;7880;50.110;9.372;2023-02-28T17:22:03;0.4940874723950401;;;0.437;100.0
15558;BME280;7880;50.110;9.372;2023-02-28T17:27:11;0.3025022023357451;;;0.312;100.0
15558;BME280;7880;50.110;9.372;2023-02-28T17:32:10;0.2772936454566661;;;0.187;100.0
15558;BME280;7880;50.110;9.372;2023-02-28T17:37:15;0.27225193495396527;;;0.187;100.0
15558;BME280;7880;50.110;9.372;2023-02-28T17:42:18;0.14620926697389222;;;0.125;100.0
15558;BME280;7880;50.110;9.372;2023-02-28T17:47:29;0.12100075520575046;;;0.125;100.0
15558;BME280;7880;50.110;9.372;2023-02-28T17:52:29;0.005041694786632434;;;0.0;100.0
15558;BME280;7880;50.110;9.372;2023-02-28T17:57:30;0.010083389864303172;;;-0.062;100.0
15558;BME280;7880;50.110;9.372;2023-02-28T18:02:34;-0.14116733586415647;;;-0.187;100.0
15558;BME280;7880;50.110;9.372;2023-02-28T18:07:44;-0.32266786098480227;;;-0.375;100.0
15558;BME280;7880;50.110;9.372;2023-02-28T18:12:46;-0.3529179118340835;;;-0.437;100.0
15558;BME280;7880;50.110;9.372;2023-02-28T18:17:50;-0.30250115459784865;;;-0.312;100.0
15558;BME280;7880;50.110;9.372;2023-02-28T18:22:54;-0.3882096245826688;;;-0.437;100.0
15558;BME280;7880;50.110;9.372;2023-02-28T18:27:59;-0.5243346687406302;;;-0.5;100.0
15558;BME280;7880;50.110;9.372;2023-02-28T18:33:06;-0.48904301099828446;;;-0.562;100.0
15558;BME280;7880;50.110;9.372;2023-02-28T18:38:18;-0.6352512145182118;;;-0.625;100.0
15558;BME280;7880;50.110;9.372;2023-02-28T18:43:12;-0.7915424717532005;;;-0.687;100.0
15558;BME280;7880;50.110;9.372;2023-02-28T18:48:19;-0.6503761871194002;;;-0.687;100.0
15558;BME280;7880;50.110;9.372;2023-02-28T18:53:47;-0.8117090652172919;;;-0.812;100.0
15558;BME280;7880;50.110;9.372;2023-02-28T18:58:36;-1.0032914708775933;;;-1.062;100.0
15558;BME280;7880;50.110;9.372;2023-02-28T19:03:34;-0.902458678180119;;;-0.937;100.0
15558;BME280;7880;50.110;9.372;2023-02-28T19:08:38;-1.0032914708775933;;;-1.0;100.0
15558;BME280;7880;50.110;9.372;2023-02-28T19:13:44;-1.09404088477022;;;-1.125;100.0
15558;BME280;7880;50.110;9.372;2023-02-28T19:18:48;-1.0839576212165412;;;-1.125;100.0
15558;BME280;7880;50.110;9.372;2023-02-28T19:23:54;-0.9932081968465354;;;-1.125;100.0
15558;BME280;7880;50.110;9.372;2023-02-28T19:29:01;-0.6856677796691656;;;-0.75;100.0
15558;BME280;7880;50.110;9.372;2023-02-28T19:34:02;-0.5848346202634275;;;-0.625;100.0
15558;BME280;7880;50.110;9.372;2023-02-28T19:39:06;-0.5394596605503466;;;-0.437;100.0
15558;BME280;7880;50.110;9.372;2023-02-28T19:44:10;-0.5697096363117453;;;-0.375;100.0
15558;BME280;7880;50.110;9.372;2023-02-28T19:49:17;-0.4587930072972085;;;-0.312;100.0
15558;BME280;7880;50.110;9.372;2023-02-28T19:54:27;-0.5092096743115689;;;-0.312;100.0
15558;BME280;7880;50.110;9.372;2023-02-28T19:59:26;-0.368042933329707;;;-0.187;100.0
15558;BME280;7880;50.110;9.372;2023-02-28T20:04:29;-0.4335846628760919;;;-0.25;100.0
15558;BME280;7880;50.110;9.372;2023-02-28T20:09:34;-0.368042933329707;;;-0.25;100.0
15558;BME280;7880;50.110;9.372;2023-02-28T20:14:39;0.07562545235850848;;;0.312;100.0
15558;BME280;7880;50.110;9.372;2023-02-28T20:19:44;-0.4335846628760919;;;-0.125;100.0
15558;BME280;7880;50.110;9.372;2023-02-28T20:24:48;-0.42854299311875366;;;-0.25;100.0
15558;BME280;7880;50.110;9.372;2023-02-28T20:29:53;-0.46887634302838704;;;-0.312;100.0
15558;BME280;7880;50.110;9.372;2023-02-28T20:34:56;-0.5142513394122943;;;-0.312;100.0
15558;BME280;7880;50.110;9.372;2023-02-28T20:40:00;-0.5848346202634275;;;-0.437;100.0
15558;BME280;7880;50.110;9.372;2023-02-28T20:45:04;-0.7058343975804746;;;-0.5;100.0
15558;BME280;7880;50.110;9.372;2023-02-28T20:50:09;-0.781459173274925;;;-0.562;100.0
15558;BME280;7880;50.110;9.372;2023-02-28T20:55:17;-0.6655011571012437;;;-0.562;100.0
15558;BME280;7880;50.110;9.372;2023-02-28T21:00:18;-0.5646679744124412;;;-0.437;100.0
15558;BME280;7880;50.110;9.372;2023-02-28T21:05:20;-0.8621255285048391;;;-0.625;100.0
15558;BME280;7880;50.110;9.372;2023-02-28T21:10:26;-0.8016257690673229;;;-0.625;100.0
15558;BME280;7880;50.110;9.372;2023-02-28T21:15:30;-0.781459173274925;;;-0.687;100.0
15558;BME280;7880;50.110;9.372;2023-02-28T21:20:33;-0.781459173274925;;;-0.687;100.0
15558;BME280;7880;50.110;9.372;2023-02-28T21:25:37;-0.731042663421249;;;-0.562;100.0
15558;BME280;7880;50.110;9.372;2023-02-28T21:30:41;-0.7713758736324963;;;-0.562;100.0
15558;BME280;7880;50.110;9.372;2023-02-28T21:35:44;-0.8822921056707855;;;-0.75;100.0
15558;BME280;7880;50.110;9.372;2023-02-28T21:40:50;-0.8772504618158564;;;-0.687;100.0
15558;BME280;7880;50.110;9.372;2023-02-28T21:45:52;-0.8318756540247705;;;-0.75;100.0
15558;BME280;7880;50.110;9.372;2023-02-28T21:50:58;-0.7713758736324963;;;-0.625;100.0
15558;BME280;7880;50.110;9.372;2023-02-28T21:55:54;-0.8470005925744772;;;-0.687;100.0
15558;BME280;7880;50.110;9.372;2023-02-28T22:01:03;-0.7411259677202906;;;-0.562;100.0
15558;BME280;7880;50.110;9.372;2023-02-28T22:06:11;-0.9276668872684241;;;-0.687;100.0
15558;BME280;7880;50.110;9.372;2023-02-28T22:11:07;-0.8369173004990443;;;-0.625;100.0
15558;BME280;7880;50.110;9.372;2023-02-28T22:16:17;-1.0032914708775933;;;-0.812;100.0
15558;BME280;7880;50.110;9.372;2023-02-28T22:21:21;-0.9831249216513243;;;-0.875;100.0
15558;BME280;7880;50.110;9.372;2023-02-28T22:26:21;-0.9125419626885559;;;-0.75;100.0
15558;BME280;7880;50.110;9.372;2023-02-28T22:31:26;-0.902458678180119;;;-0.75;100.0
15558;BME280;7880;50.110;9.372;2023-02-28T22:36:27;-1.0032914708775933;;;-0.812;100.0
15558;BME280;7880;50.110;9.372;2023-02-28T22:41:30;-0.9175836045062169;;;-0.75;100.0
15558;BME280;7880;50.110;9.372;2023-02-28T22:46:40;-0.9528750890807715;;;-0.75;100.0
15558;BME280;7880;50.110;9.372;2023-02-28T22:51:38;-1.0486661896109581;;;-0.812;100.0